createdAt,value
2018-06-18T00:00:52.228Z,2.80
2018-06-18T00:03:25.261Z,2.60
2018-06-18T00:05:58.360Z,2.23
2018-06-18T00:08:31.394Z,2.60
2018-06-18T00:11:03.373Z,3.47
2018-06-18T00:13:36.987Z,3.50
2018-06-18T00:16:10.243Z,2.90
2018-06-18T00:18:43.292Z,2.40
2018-06-18T00:21:16.301Z,3.63
2018-06-18T00:23:49.547Z,3.10
2018-06-18T00:26:22.648Z,2.93
2018-06-18T00:28:55.678Z,4.30
2018-06-18T00:31:28.683Z,4.13
2018-06-18T00:34:01.745Z,3.17
2018-06-18T00:36:34.793Z,3.90
2018-06-18T00:39:09.783Z,3.43
2018-06-18T00:41:42.249Z,3.30
2018-06-18T00:44:15.199Z,3.47
2018-06-18T00:46:48.273Z,3.77
2018-06-18T00:49:21.278Z,4.13
2018-06-18T00:51:54.377Z,3.80
2018-06-18T00:54:27.869Z,3.67
2018-06-18T00:56:59.504Z,4.33
2018-06-18T00:59:33.324Z,4.63
2018-06-18T01:02:06.425Z,4.50
2018-06-18T01:04:39.384Z,5.00
2018-06-18T01:07:12.697Z,5.37
2018-06-18T01:09:45.748Z,4.40
2018-06-18T01:12:18.772Z,5.03
2018-06-18T01:14:51.767Z,4.90
2018-06-18T01:17:24.817Z,4.13
2018-06-18T01:19:58.439Z,3.90
2018-06-18T01:22:31.657Z,4.53
2018-06-18T01:25:07.320Z,4.53
2018-06-18T01:27:40.317Z,4.27
2018-06-18T01:30:13.304Z,3.37
2018-06-18T01:32:46.436Z,3.20
2018-06-18T01:35:19.393Z,3.97
2018-06-18T01:37:52.570Z,3.70
2018-06-18T01:40:25.653Z,2.90
2018-06-18T01:42:58.742Z,3.10
2018-06-18T01:45:32.844Z,3.30
2018-06-18T01:48:05.863Z,3.10
2018-06-18T01:50:41.081Z,3.40
2018-06-18T01:53:14.126Z,3.63
2018-06-18T01:55:47.295Z,3.00
2018-06-18T01:58:20.404Z,2.80
2018-06-18T02:00:53.391Z,2.53
2018-06-18T02:03:36.996Z,3.07
2018-06-18T02:06:10.099Z,2.90
2018-06-18T02:08:43.105Z,3.90
2018-06-18T02:11:16.097Z,3.53
2018-06-18T02:13:49.074Z,3.17
2018-06-18T02:16:22.428Z,2.83
2018-06-18T02:18:55.576Z,3.20
2018-06-18T02:21:29.170Z,2.80
2018-06-18T02:24:02.234Z,3.00
2018-06-18T02:26:35.319Z,2.83
2018-06-18T02:29:12.502Z,2.47
2018-06-18T02:31:49.759Z,2.60
2018-06-18T02:34:27.400Z,2.30
2018-06-18T02:37:05.494Z,2.80
2018-06-18T02:39:42.065Z,2.53
2018-06-18T02:42:15.730Z,2.90
2018-06-18T02:44:48.723Z,2.90
2018-06-18T02:47:22.990Z,2.87
2018-06-18T02:49:57.072Z,2.67
2018-06-18T02:52:30.160Z,2.80
2018-06-18T02:55:03.257Z,2.90
2018-06-18T02:57:36.434Z,2.70
2018-06-18T03:00:09.442Z,3.00
2018-06-18T03:02:42.529Z,2.80
2018-06-18T03:05:15.707Z,2.30
2018-06-18T03:07:48.649Z,2.47
2018-06-18T03:10:21.713Z,3.03
2018-06-18T03:12:55.340Z,2.83
2018-06-18T03:15:28.320Z,2.80
2018-06-18T03:18:01.455Z,3.10
2018-06-18T03:20:38.744Z,3.43
2018-06-18T03:23:16.062Z,2.80
2018-06-18T03:25:54.401Z,3.43
2018-06-18T03:28:31.571Z,2.90
2018-06-18T03:31:04.649Z,2.50
2018-06-18T03:33:37.705Z,3.33
2018-06-18T03:36:11.369Z,3.40
2018-06-18T03:38:45.836Z,3.27
2018-06-18T03:41:18.849Z,3.23
2018-06-18T03:43:56.186Z,3.20
2018-06-18T03:46:29.246Z,3.50
2018-06-18T03:49:02.277Z,2.97
2018-06-18T03:51:39.828Z,3.40
2018-06-18T03:54:12.854Z,3.90
2018-06-18T03:56:46.109Z,3.20
2018-06-18T03:59:19.135Z,3.50
2018-06-18T04:02:02.965Z,3.10
2018-06-18T04:05:00.909Z,3.40
2018-06-18T04:07:41.709Z,3.53
2018-06-18T04:10:18.902Z,3.40
2018-06-18T04:12:51.978Z,3.57
2018-06-18T04:15:24.966Z,3.30
2018-06-18T04:17:58.461Z,3.93
2018-06-18T04:20:33.718Z,3.80
2018-06-18T04:23:06.800Z,3.70
2018-06-18T04:25:39.796Z,3.60
2018-06-18T04:28:12.813Z,3.27
2018-06-18T04:30:47.157Z,3.07
2018-06-18T04:33:23.000Z,2.97
2018-06-18T04:35:56.065Z,3.30
2018-06-18T04:38:29.149Z,3.20
2018-06-18T04:41:02.159Z,3.30
2018-06-18T04:43:40.699Z,3.10
2018-06-18T04:46:17.719Z,3.20
2018-06-18T04:48:54.881Z,3.10
2018-06-18T04:51:27.924Z,3.80
2018-06-18T04:54:01.045Z,3.47
2018-06-18T04:56:34.538Z,3.20
2018-06-18T04:59:07.705Z,3.13
2018-06-18T05:01:40.870Z,3.40
2018-06-18T05:04:13.864Z,3.40
2018-06-18T05:06:46.886Z,3.70
2018-06-18T05:09:32.153Z,3.47
2018-06-18T05:12:05.329Z,3.07
2018-06-18T05:14:38.451Z,3.87
2018-06-18T05:17:11.689Z,2.60
2018-06-18T05:19:45.900Z,3.07
2018-06-18T05:22:21.465Z,3.03
2018-06-18T05:24:56.028Z,2.53
2018-06-18T05:27:32.474Z,2.80
2018-06-18T05:30:13.268Z,3.20
2018-06-18T05:32:46.423Z,3.50
2018-06-18T05:35:19.716Z,2.90
2018-06-18T05:38:03.505Z,2.97
2018-06-18T05:40:36.863Z,3.30
2018-06-18T05:43:09.824Z,3.00
2018-06-18T05:45:42.886Z,3.03
2018-06-18T05:48:16.519Z,3.27
2018-06-18T05:50:50.527Z,3.60
2018-06-18T05:53:24.257Z,2.90
2018-06-18T05:55:57.372Z,2.90
2018-06-18T05:58:30.478Z,4.00
2018-06-18T06:01:03.474Z,4.47
2018-06-18T06:03:36.517Z,4.20
2018-06-18T06:06:09.722Z,5.27
2018-06-18T06:08:42.763Z,5.50
2018-06-18T06:11:15.725Z,5.27
2018-06-18T06:13:48.797Z,5.50
2018-06-18T06:16:21.889Z,5.20
2018-06-18T06:18:55.260Z,6.10
2018-06-18T06:21:28.337Z,5.90
2018-06-18T06:24:02.688Z,6.30
2018-06-18T06:26:35.876Z,6.30
2018-06-18T06:29:08.873Z,5.77
2018-06-18T06:31:41.929Z,3.90
2018-06-18T06:34:14.943Z,4.60
2018-06-18T06:36:48.665Z,4.03
2018-06-18T06:39:22.427Z,3.57
2018-06-18T06:42:00.317Z,4.40
2018-06-18T06:44:33.890Z,3.87
2018-06-18T06:47:06.946Z,3.80
2018-06-18T06:49:41.070Z,4.03
2018-06-18T06:52:14.077Z,4.63
2018-06-18T06:54:47.123Z,5.77
2018-06-18T06:57:20.160Z,6.00
2018-06-18T06:59:53.140Z,6.83
2018-06-18T07:02:26.390Z,6.60
2018-06-18T07:05:00.359Z,5.90
2018-06-18T07:07:34.493Z,5.57
2018-06-18T07:10:07.712Z,7.10
2018-06-18T07:12:40.865Z,5.87
2018-06-18T07:15:15.229Z,5.90
2018-06-18T07:17:48.656Z,5.40
2018-06-18T07:20:21.715Z,5.97
2018-06-18T07:22:54.962Z,5.60
2018-06-18T07:25:27.985Z,5.37
2018-06-18T07:28:03.360Z,4.70
2018-06-18T07:30:36.487Z,4.60
2018-06-18T07:33:09.591Z,5.10
2018-06-18T07:35:42.627Z,4.80
2018-06-18T07:38:15.680Z,5.30
2018-06-18T07:40:48.666Z,5.33
2018-06-18T07:43:21.790Z,3.90
2018-06-18T07:45:53.827Z,4.17
2018-06-18T07:48:27.656Z,5.00
2018-06-18T07:51:01.065Z,4.30
2018-06-18T07:53:34.203Z,3.70
2018-06-18T07:56:07.479Z,4.63
2018-06-18T07:58:41.483Z,5.17
2018-06-18T08:01:14.560Z,4.30
2018-06-18T08:03:47.673Z,4.60
2018-06-18T08:06:20.623Z,4.80
2018-06-18T08:08:53.640Z,3.90
2018-06-18T08:11:27.157Z,5.33
2018-06-18T08:14:00.812Z,4.10
2018-06-18T08:16:35.084Z,4.90
2018-06-18T08:19:08.206Z,4.40
2018-06-18T08:21:41.374Z,4.43
2018-06-18T08:24:14.389Z,5.70
2018-06-18T08:26:47.439Z,4.80
2018-06-18T08:29:20.542Z,4.80
2018-06-18T08:31:53.635Z,4.97
2018-06-18T08:34:26.622Z,4.40
2018-06-18T08:36:59.617Z,4.47
2018-06-18T08:39:32.746Z,4.30
2018-06-18T08:42:09.665Z,4.10
2018-06-18T08:44:42.679Z,4.53
2018-06-18T08:47:15.734Z,4.60
2018-06-18T08:49:52.830Z,4.03
2018-06-18T08:52:29.930Z,5.03
2018-06-18T08:55:07.620Z,4.47
2018-06-18T08:57:44.873Z,4.80
2018-06-18T09:00:22.053Z,4.37
2018-06-18T09:02:59.216Z,4.20
2018-06-18T09:05:36.300Z,4.93
2018-06-18T09:08:18.649Z,4.50
2018-06-18T09:10:51.743Z,5.57
2018-06-18T09:13:25.273Z,4.63
2018-06-18T09:15:58.810Z,4.90
2018-06-18T09:18:31.974Z,5.60
2018-06-18T09:21:06.465Z,4.30
2018-06-18T09:23:39.566Z,5.20
2018-06-18T09:26:12.579Z,5.33
2018-06-18T09:28:45.546Z,6.63
2018-06-18T09:31:18.505Z,5.03
2018-06-18T09:33:52.084Z,5.50
2018-06-18T09:36:25.220Z,5.40
2018-06-18T09:39:00.352Z,5.80
2018-06-18T09:41:33.405Z,5.07
2018-06-18T09:44:06.608Z,5.37
2018-06-18T09:46:40.046Z,4.90
2018-06-18T09:49:17.152Z,4.90
2018-06-18T09:51:54.285Z,4.87
2018-06-18T09:54:31.517Z,5.43
2018-06-18T09:57:08.499Z,4.60
2018-06-18T09:59:49.913Z,5.50
2018-06-18T10:02:23.109Z,5.57
2018-06-18T10:04:56.120Z,5.10
2018-06-18T10:07:29.119Z,5.40
2018-06-18T10:10:02.233Z,4.77
2018-06-18T10:12:36.464Z,4.90
2018-06-18T10:15:09.578Z,5.80
2018-06-18T10:17:42.669Z,5.83
2018-06-18T10:20:15.642Z,4.27
2018-06-18T10:22:49.549Z,5.70
2018-06-18T10:25:22.536Z,4.70
2018-06-18T10:27:55.727Z,4.90
2018-06-18T10:30:27.887Z,5.10
2018-06-18T10:33:05.170Z,5.10
2018-06-18T10:35:42.513Z,5.57
2018-06-18T10:38:19.766Z,5.57
2018-06-18T10:40:57.032Z,6.13
2018-06-18T10:43:32.938Z,5.63
2018-06-18T10:46:06.015Z,6.10
2018-06-18T10:48:39.001Z,5.57
2018-06-18T10:51:12.425Z,5.50
2018-06-18T10:53:45.497Z,6.10
2018-06-18T10:56:18.527Z,6.60
2018-06-18T10:58:51.538Z,5.73
2018-06-18T11:01:30.701Z,6.63
2018-06-18T11:04:04.612Z,5.77
2018-06-18T11:06:39.526Z,5.40
2018-06-18T11:09:17.709Z,5.67
2018-06-18T11:11:50.878Z,5.07
2018-06-18T11:14:23.924Z,5.50
2018-06-18T11:17:01.296Z,5.80
2018-06-18T11:19:38.319Z,5.07
2018-06-18T11:22:11.911Z,5.20
2018-06-18T11:24:47.565Z,6.30
2018-06-18T11:27:20.630Z,5.77
2018-06-18T11:29:53.848Z,5.30
2018-06-18T11:32:27.069Z,6.40
2018-06-18T11:35:01.508Z,5.40
2018-06-18T11:37:34.572Z,4.97
2018-06-18T11:40:06.269Z,5.87
2018-06-18T11:42:39.311Z,5.57
2018-06-18T11:45:12.339Z,6.50
2018-06-18T11:47:46.174Z,6.63
2018-06-18T11:50:19.234Z,6.23
2018-06-18T11:52:52.257Z,5.60
2018-06-18T11:55:25.271Z,5.63
2018-06-18T11:57:58.269Z,6.07
2018-06-18T12:00:35.336Z,5.60
2018-06-18T12:03:12.491Z,5.00
2018-06-18T12:05:49.596Z,5.60
2018-06-18T12:08:26.821Z,5.30
2018-06-18T12:10:59.792Z,5.33
2018-06-18T12:13:31.786Z,5.07
2018-06-18T12:16:04.829Z,5.20
2018-06-18T12:18:38.333Z,5.23
2018-06-18T12:21:11.453Z,4.77
2018-06-18T12:23:44.483Z,5.67
2018-06-18T12:26:17.495Z,4.60
2018-06-18T12:28:50.496Z,4.90
2018-06-18T12:31:23.497Z,5.40
2018-06-18T12:33:57.489Z,4.67
2018-06-18T12:36:30.701Z,5.47
2018-06-18T12:39:04.022Z,5.10
2018-06-18T12:41:37.017Z,4.97
2018-06-18T12:44:10.394Z,4.40
2018-06-18T12:46:47.600Z,4.90
2018-06-18T12:49:24.705Z,4.90
2018-06-18T12:52:01.927Z,4.83
2018-06-18T12:54:38.981Z,4.73
2018-06-18T12:57:16.859Z,4.87
2018-06-18T12:59:49.834Z,4.50
2018-06-18T13:02:32.424Z,4.87
2018-06-18T13:05:05.837Z,5.00
2018-06-18T13:07:38.856Z,5.50
2018-06-18T13:10:12.357Z,4.90
2018-06-18T13:12:44.000Z,4.70
2018-06-18T13:15:17.037Z,4.33
2018-06-18T13:17:50.216Z,4.30
2018-06-18T13:20:23.331Z,4.73
2018-06-18T13:22:55.843Z,3.73
2018-06-18T13:25:28.797Z,4.03
2018-06-18T13:28:05.901Z,4.57
2018-06-18T13:30:38.940Z,4.20
2018-06-18T13:33:12.449Z,4.37
2018-06-18T13:35:46.401Z,4.40
2018-06-18T13:38:23.553Z,3.70
2018-06-18T13:41:00.677Z,4.50
2018-06-18T13:43:37.707Z,3.87
2018-06-18T13:46:14.809Z,4.00
2018-06-18T13:48:55.294Z,3.73
2018-06-18T13:51:29.258Z,4.23
2018-06-18T13:54:02.343Z,4.83
2018-06-18T13:56:36.224Z,4.47
2018-06-18T13:59:09.333Z,4.40
2018-06-18T14:01:44.262Z,4.60
2018-06-18T14:04:17.353Z,5.10
2018-06-18T14:06:50.357Z,4.60
2018-06-18T14:09:21.891Z,4.20
2018-06-18T14:11:54.867Z,4.53
2018-06-18T14:14:27.296Z,4.30
2018-06-18T14:17:00.449Z,4.57
2018-06-18T14:19:39.136Z,4.53
2018-06-18T14:22:13.037Z,4.83
2018-06-18T14:24:46.913Z,4.93
2018-06-18T14:27:22.966Z,5.83
2018-06-18T14:30:00.028Z,5.30
2018-06-18T14:32:38.742Z,5.20
2018-06-18T14:35:15.824Z,5.60
2018-06-18T14:37:52.973Z,5.97
2018-06-18T14:40:26.083Z,4.20
2018-06-18T14:42:59.177Z,5.50
2018-06-18T14:45:35.578Z,5.13
2018-06-18T14:48:08.611Z,5.47
2018-06-18T14:50:41.737Z,5.53
2018-06-18T14:53:14.725Z,4.90
2018-06-18T14:55:50.506Z,4.80
2018-06-18T14:58:24.648Z,4.70
2018-06-18T15:00:58.124Z,4.90
2018-06-18T15:03:31.153Z,4.63
2018-06-18T15:06:02.959Z,5.13
2018-06-18T15:08:35.948Z,4.43
2018-06-18T15:11:09.529Z,4.40
2018-06-18T15:13:42.626Z,4.87
2018-06-18T15:16:19.668Z,4.80
2018-06-18T15:18:52.759Z,5.30
2018-06-18T15:21:25.797Z,4.20
2018-06-18T15:23:59.435Z,4.40
2018-06-18T15:26:32.527Z,4.30
2018-06-18T15:29:05.553Z,4.00
2018-06-18T15:31:38.651Z,4.63
2018-06-18T15:34:11.781Z,4.53
2018-06-18T15:36:44.818Z,5.03
2018-06-18T15:39:17.927Z,4.77
2018-06-18T15:41:51.497Z,5.33
2018-06-18T15:44:24.499Z,6.30
2018-06-18T15:46:57.708Z,6.00
2018-06-18T15:49:31.584Z,5.00
2018-06-18T15:52:04.625Z,5.67
2018-06-18T15:54:39.078Z,5.20
2018-06-18T15:57:12.161Z,6.17
2018-06-18T15:59:45.306Z,6.60
2018-06-18T16:02:18.360Z,5.90
2018-06-18T16:04:51.418Z,5.37
2018-06-18T16:07:24.729Z,5.50
2018-06-18T16:09:57.796Z,6.37
2018-06-18T16:12:30.869Z,5.27
2018-06-18T16:15:03.873Z,5.70
2018-06-18T16:17:37.520Z,5.47
2018-06-18T16:20:11.903Z,8.70
2018-06-18T16:22:44.922Z,6.20
2018-06-18T16:25:18.132Z,5.23
2018-06-18T16:27:51.268Z,5.40
2018-06-18T16:30:25.257Z,6.83
2018-06-18T16:32:58.412Z,6.20
2018-06-18T16:35:31.433Z,6.23
2018-06-18T16:38:05.355Z,5.53
2018-06-18T16:40:38.400Z,6.10
2018-06-18T16:43:11.413Z,5.00
2018-06-18T16:45:44.497Z,4.73
2018-06-18T16:48:17.555Z,5.17
2018-06-18T16:50:51.146Z,5.33
2018-06-18T16:53:24.189Z,4.97
2018-06-18T16:55:57.314Z,4.77
2018-06-18T16:58:30.259Z,4.80
2018-06-18T17:01:03.422Z,5.43
2018-06-18T17:03:36.545Z,4.50
2018-06-18T17:06:09.581Z,4.90
2018-06-18T17:08:42.686Z,5.83
2018-06-18T17:11:15.864Z,5.50
2018-06-18T17:13:49.029Z,4.67
2018-06-18T17:16:21.325Z,5.40
2018-06-18T17:18:54.304Z,5.20
2018-06-18T17:21:26.893Z,5.67
2018-06-18T17:23:59.896Z,5.80
2018-06-18T17:26:32.920Z,5.30
2018-06-18T17:29:06.037Z,6.00
2018-06-18T17:31:40.027Z,5.70
2018-06-18T17:34:11.751Z,5.50
2018-06-18T17:36:44.769Z,5.90
2018-06-18T17:39:17.813Z,5.67
2018-06-18T17:41:50.892Z,5.60
2018-06-18T17:44:23.884Z,5.13
2018-06-18T17:46:56.891Z,5.63
2018-06-18T17:49:29.997Z,5.50
2018-06-18T17:52:03.020Z,5.80
2018-06-18T17:54:35.998Z,5.77
2018-06-18T17:57:09.377Z,5.33
2018-06-18T17:59:45.812Z,6.10
2018-06-18T18:02:18.854Z,5.40
2018-06-18T18:04:52.367Z,5.43
2018-06-18T18:07:25.366Z,6.37
2018-06-18T18:09:58.444Z,6.00
2018-06-18T18:12:32.285Z,6.40
2018-06-18T18:15:05.345Z,5.80
2018-06-18T18:17:38.770Z,5.47
2018-06-18T18:20:11.835Z,5.80
2018-06-18T18:22:44.925Z,6.30
2018-06-18T18:25:18.787Z,5.93
2018-06-18T18:27:51.785Z,6.63
2018-06-18T18:30:23.439Z,6.37
2018-06-18T18:32:56.873Z,6.50
2018-06-18T18:35:28.544Z,7.20
2018-06-18T18:38:01.520Z,7.30
2018-06-18T18:40:34.679Z,6.60
2018-06-18T18:43:09.066Z,7.03
2018-06-18T18:45:43.552Z,6.97
2018-06-18T18:48:16.566Z,6.97
2018-06-18T18:50:49.542Z,7.47
2018-06-18T19:15:58.379Z,7.13
2018-06-18T19:18:31.438Z,9.00
2018-06-18T19:21:08.397Z,8.57
2018-06-18T19:23:41.584Z,9.00
2018-06-18T19:26:14.941Z,9.50
2018-06-18T19:28:46.576Z,9.93
2018-06-18T19:31:23.474Z,8.70
2018-06-18T19:34:30.094Z,9.43
2018-06-18T19:37:03.185Z,9.23
2018-06-18T19:39:41.673Z,9.50
2018-06-18T19:42:15.921Z,10.83
2018-06-18T19:44:49.797Z,9.03
2018-06-18T19:47:36.940Z,8.37
2018-06-18T19:50:09.950Z,8.87
2018-06-18T19:52:43.241Z,9.50
2018-06-18T19:55:19.524Z,9.00
2018-06-18T19:57:52.677Z,8.70
2018-06-18T20:00:27.433Z,8.30
2018-06-18T20:03:00.429Z,9.43
2018-06-18T20:05:39.862Z,8.40
2018-06-18T20:08:15.674Z,8.10
2018-06-18T20:10:48.770Z,8.33
2018-06-18T20:13:21.993Z,8.20
2018-06-18T20:15:55.116Z,8.10
2018-06-18T20:18:28.624Z,8.30
2018-06-18T20:21:01.692Z,7.70
2018-06-18T20:23:34.747Z,7.50
2018-06-18T20:26:16.555Z,7.80
2018-06-18T20:28:49.583Z,8.00
2018-06-18T20:31:23.079Z,8.60
2018-06-18T20:33:58.685Z,8.33
2018-06-18T20:36:31.870Z,9.07
2018-06-18T20:39:05.136Z,8.40
2018-06-18T20:41:38.210Z,7.87
2018-06-18T20:44:18.816Z,7.77
2018-06-18T20:46:51.944Z,8.50
2018-06-18T20:49:25.957Z,9.40
2018-06-18T20:51:58.982Z,8.63
2018-06-18T20:54:32.073Z,8.63
2018-06-18T20:57:05.809Z,9.30
2018-06-18T20:59:38.838Z,8.50
2018-06-18T21:02:12.377Z,8.90
2018-06-18T21:04:45.376Z,9.67
2018-06-18T21:07:18.398Z,9.03
2018-06-18T21:09:51.652Z,8.70
2018-06-18T21:12:24.733Z,8.53
2018-06-18T21:14:59.057Z,8.87
2018-06-18T21:17:32.207Z,8.97
2018-06-18T21:20:05.164Z,9.97
2018-06-18T21:22:38.126Z,9.27
2018-06-18T21:25:11.084Z,9.37
2018-06-18T21:27:44.063Z,8.53
2018-06-18T21:30:17.112Z,8.30
2018-06-18T21:32:50.145Z,8.17
2018-06-18T21:35:23.202Z,8.60
2018-06-18T21:37:58.318Z,8.47
2018-06-18T21:40:31.928Z,8.20
2018-06-18T21:43:04.900Z,9.07
2018-06-18T21:45:37.971Z,7.90
2018-06-18T21:48:11.037Z,8.50
2018-06-18T21:50:44.000Z,8.20
2018-06-18T21:53:17.585Z,7.40
2018-06-18T21:55:50.634Z,7.77
2018-06-18T21:58:23.924Z,7.20
2018-06-18T22:00:57.158Z,7.87
2018-06-18T22:03:30.328Z,7.10
2018-06-18T22:06:03.486Z,7.57
2018-06-18T22:08:36.793Z,7.53
2018-06-18T22:11:11.284Z,7.17
2018-06-18T22:13:44.405Z,7.57
2018-06-18T22:16:17.492Z,6.77
2018-06-18T22:18:50.498Z,8.07
2018-06-18T22:21:24.539Z,7.50
2018-06-18T22:23:57.599Z,7.63
2018-06-18T22:26:30.664Z,7.20
2018-06-18T22:29:03.726Z,7.60
2018-06-18T22:31:37.076Z,6.57
2018-06-18T22:34:10.126Z,6.50
2018-06-18T22:36:44.751Z,6.40
2018-06-18T22:39:17.724Z,6.70
2018-06-18T22:41:50.743Z,5.80
2018-06-18T22:44:23.833Z,7.00
2018-06-18T22:46:56.885Z,6.40
2018-06-18T22:49:30.492Z,6.27
2018-06-18T22:52:03.572Z,6.30
2018-06-18T22:54:38.609Z,6.60
2018-06-18T22:57:11.773Z,6.00
2018-06-18T22:59:44.759Z,7.00
2018-06-18T23:02:20.619Z,6.07
2018-06-18T23:04:54.946Z,6.63
2018-06-18T23:07:28.280Z,6.73
2018-06-18T23:10:01.264Z,6.63
2018-06-18T23:12:42.085Z,7.30
2018-06-18T23:15:16.457Z,7.13
2018-06-18T23:17:49.647Z,7.93
2018-06-18T23:20:22.628Z,8.13
2018-06-18T23:22:55.686Z,7.63
2018-06-18T23:25:28.623Z,8.13
2018-06-18T23:28:01.671Z,8.47
2018-06-18T23:30:34.725Z,8.10
2018-06-18T23:33:08.403Z,8.77
2018-06-18T23:35:41.657Z,9.37
2018-06-18T23:38:14.788Z,7.53
2018-06-18T23:40:47.824Z,8.40
2018-06-18T23:43:20.764Z,9.40
2018-06-18T23:45:54.405Z,9.77
2018-06-18T23:48:27.428Z,8.90
2018-06-18T23:51:00.514Z,9.50
2018-06-18T23:53:33.523Z,9.57
2018-06-18T23:56:06.945Z,9.40
2018-06-18T23:58:40.362Z,10.40
